sensor_id;sensor_type;location;lat;lon;timestamp;pressure;altitude;pressure_sealevel;temperature;humidity
20656;BME280;10487;53.320;8.672;2023-05-10T00:02:45;100483.94;;;14.22;48.63
20656;BME280;10487;53.320;8.672;2023-05-10T00:05:47;100489.31;;;14.22;48.47
20656;BME280;10487;53.320;8.672;2023-05-10T00:08:49;100482.22;;;14.21;48.49
20656;BME280;10487;53.320;8.672;2023-05-10T00:11:50;100483.22;;;14.20;48.81
20656;BME280;10487;53.320;8.672;2023-05-10T00:14:52;100478.84;;;14.19;48.83
20656;BME280;10487;53.320;8.672;2023-05-10T00:17:53;100482.50;;;14.18;48.61
20656;BME280;10487;53.320;8.672;2023-05-10T00:20:55;100466.69;;;14.15;48.57
20656;BME280;10487;53.320;8.672;2023-05-10T00:23:57;100466.16;;;14.12;48.86
20656;BME280;10487;53.320;8.672;2023-05-10T00:26:59;100461.91;;;14.09;48.71
20656;BME280;10487;53.320;8.672;2023-05-10T00:30:02;100470.22;;;14.06;48.66
20656;BME280;10487;53.320;8.672;2023-05-10T00:33:03;100460.22;;;13.99;48.65
20656;BME280;10487;53.320;8.672;2023-05-10T00:36:05;100460.06;;;13.91;48.95
20656;BME280;10487;53.320;8.672;2023-05-10T00:39:08;100449.22;;;13.83;48.86
20656;BME280;10487;53.320;8.672;2023-05-10T00:42:10;100454.28;;;13.76;48.95
20656;BME280;10487;53.320;8.672;2023-05-10T00:45:11;100450.34;;;13.70;49.21
20656;BME280;10487;53.320;8.672;2023-05-10T00:48:13;100449.06;;;13.65;49.08
20656;BME280;10487;53.320;8.672;2023-05-10T00:51:15;100453.13;;;13.59;49.13
20656;BME280;10487;53.320;8.672;2023-05-10T00:54:17;100443.69;;;13.55;48.85
20656;BME280;10487;53.320;8.672;2023-05-10T00:57:19;100443.25;;;13.50;49.17
20656;BME280;10487;53.320;8.672;2023-05-10T01:00:21;100444.50;;;13.46;49.28
20656;BME280;10487;53.320;8.672;2023-05-10T01:03:23;100446.59;;;13.43;49.11
20656;BME280;10487;53.320;8.672;2023-05-10T01:06:24;100442.22;;;13.42;49.27
20656;BME280;10487;53.320;8.672;2023-05-10T01:09:26;100437.28;;;13.37;49.32
20656;BME280;10487;53.320;8.672;2023-05-10T01:12:28;100439.66;;;13.31;48.93
20656;BME280;10487;53.320;8.672;2023-05-10T01:15:30;100441.91;;;13.26;49.21
20656;BME280;10487;53.320;8.672;2023-05-10T01:18:34;100441.59;;;13.19;49.23
20656;BME280;10487;53.320;8.672;2023-05-10T01:21:53;100447.38;;;13.15;49.28
20656;BME280;10487;53.320;8.672;2023-05-10T01:25:06;100439.75;;;13.10;49.41
20656;BME280;10487;53.320;8.672;2023-05-10T01:35:29;100441.06;;;12.85;49.48
20656;BME280;10487;53.320;8.672;2023-05-10T01:38:51;100443.28;;;12.80;49.33
20656;BME280;10487;53.320;8.672;2023-05-10T01:42:10;100441.84;;;12.76;49.19
20656;BME280;10487;53.320;8.672;2023-05-10T01:45:18;100447.50;;;12.73;48.99
20656;BME280;10487;53.320;8.672;2023-05-10T01:48:22;100437.19;;;12.69;49.03
20656;BME280;10487;53.320;8.672;2023-05-10T01:51:27;100431.94;;;12.67;49.19
20656;BME280;10487;53.320;8.672;2023-05-10T01:54:33;100427.47;;;12.68;49.39
20656;BME280;10487;53.320;8.672;2023-05-10T01:57:37;100432.81;;;12.68;49.20
20656;BME280;10487;53.320;8.672;2023-05-10T02:00:43;100432.22;;;12.64;49.05
20656;BME280;10487;53.320;8.672;2023-05-10T02:03:46;100427.16;;;12.61;49.05
20656;BME280;10487;53.320;8.672;2023-05-10T02:06:49;100427.25;;;12.60;49.24
20656;BME280;10487;53.320;8.672;2023-05-10T02:09:53;100429.38;;;12.56;49.46
20656;BME280;10487;53.320;8.672;2023-05-10T02:12:58;100424.28;;;12.53;49.40
20656;BME280;10487;53.320;8.672;2023-05-10T02:16:01;100425.63;;;12.47;49.61
20656;BME280;10487;53.320;8.672;2023-05-10T02:19:04;100421.34;;;12.35;49.28
20656;BME280;10487;53.320;8.672;2023-05-10T02:22:07;100411.44;;;12.26;49.56
20656;BME280;10487;53.320;8.672;2023-05-10T02:25:11;100423.50;;;12.21;49.76
20656;BME280;10487;53.320;8.672;2023-05-10T02:28:16;100409.66;;;12.16;49.62
20656;BME280;10487;53.320;8.672;2023-05-10T02:31:19;100425.50;;;12.08;49.58
20656;BME280;10487;53.320;8.672;2023-05-10T02:34:21;100428.72;;;12.02;49.41
20656;BME280;10487;53.320;8.672;2023-05-10T02:37:25;100428.53;;;11.94;49.39
20656;BME280;10487;53.320;8.672;2023-05-10T02:40:27;100416.75;;;11.85;49.57
20656;BME280;10487;53.320;8.672;2023-05-10T02:43:30;100412.19;;;11.76;49.82
20656;BME280;10487;53.320;8.672;2023-05-10T02:46:32;100407.63;;;11.67;49.78
20656;BME280;10487;53.320;8.672;2023-05-10T02:49:34;100398.41;;;11.60;49.55
20656;BME280;10487;53.320;8.672;2023-05-10T02:52:42;100403.41;;;11.53;49.64
20656;BME280;10487;53.320;8.672;2023-05-10T02:55:48;100400.97;;;11.50;49.71
20656;BME280;10487;53.320;8.672;2023-05-10T02:58:50;100404.88;;;11.46;49.58
20656;BME280;10487;53.320;8.672;2023-05-10T03:01:52;100408.50;;;11.45;49.93
20656;BME280;10487;53.320;8.672;2023-05-10T03:04:53;100408.78;;;11.42;49.56
20656;BME280;10487;53.320;8.672;2023-05-10T03:07:56;100406.22;;;11.41;49.45
20656;BME280;10487;53.320;8.672;2023-05-10T03:11:21;100414.22;;;11.41;49.87
20656;BME280;10487;53.320;8.672;2023-05-10T03:14:42;100418.03;;;11.70;49.64
20656;BME280;10487;53.320;8.672;2023-05-10T03:18:40;100412.75;;;11.79;49.68
20656;BME280;10487;53.320;8.672;2023-05-10T03:21:26;100417.16;;;11.80;49.43
20656;BME280;10487;53.320;8.672;2023-05-10T03:24:30;100417.16;;;11.80;49.64
20656;BME280;10487;53.320;8.672;2023-05-10T03:27:32;100415.59;;;11.78;49.62
20656;BME280;10487;53.320;8.672;2023-05-10T03:30:35;100407.94;;;11.73;49.40
20656;BME280;10487;53.320;8.672;2023-05-10T03:33:48;100408.34;;;11.69;49.55
20656;BME280;10487;53.320;8.672;2023-05-10T03:36:50;100414.78;;;11.66;49.29
20656;BME280;10487;53.320;8.672;2023-05-10T03:39:52;100412.38;;;11.63;49.26
20656;BME280;10487;53.320;8.672;2023-05-10T03:42:54;100419.91;;;11.58;49.65
20656;BME280;10487;53.320;8.672;2023-05-10T03:45:56;100419.19;;;11.56;49.52
20656;BME280;10487;53.320;8.672;2023-05-10T03:48:58;100419.06;;;11.58;49.34
20656;BME280;10487;53.320;8.672;2023-05-10T03:52:00;100427.78;;;11.60;49.36
20656;BME280;10487;53.320;8.672;2023-05-10T03:55:01;100422.59;;;11.58;49.29
20656;BME280;10487;53.320;8.672;2023-05-10T03:58:05;100420.63;;;11.60;49.24
20656;BME280;10487;53.320;8.672;2023-05-10T04:01:06;100408.97;;;11.61;49.28
20656;BME280;10487;53.320;8.672;2023-05-10T04:04:08;100411.91;;;11.58;49.02
20656;BME280;10487;53.320;8.672;2023-05-10T04:07:09;100412.63;;;11.60;48.98
20656;BME280;10487;53.320;8.672;2023-05-10T04:10:11;100411.91;;;11.58;49.28
20656;BME280;10487;53.320;8.672;2023-05-10T04:13:13;100403.88;;;11.58;49.17
20656;BME280;10487;53.320;8.672;2023-05-10T04:16:15;100400.50;;;11.56;49.08
20656;BME280;10487;53.320;8.672;2023-05-10T04:19:16;100404.13;;;11.55;49.27
20656;BME280;10487;53.320;8.672;2023-05-10T04:22:18;100401.47;;;11.55;49.37
20656;BME280;10487;53.320;8.672;2023-05-10T04:25:20;100400.75;;;11.53;49.44
20656;BME280;10487;53.320;8.672;2023-05-10T04:28:21;100406.31;;;11.50;49.43
20656;BME280;10487;53.320;8.672;2023-05-10T04:31:23;100401.59;;;11.43;49.47
20656;BME280;10487;53.320;8.672;2023-05-10T04:34:25;100401.97;;;11.38;49.49
20656;BME280;10487;53.320;8.672;2023-05-10T04:37:26;100408.66;;;11.33;49.36
20656;BME280;10487;53.320;8.672;2023-05-10T04:40:28;100411.00;;;11.26;49.54
20656;BME280;10487;53.320;8.672;2023-05-10T04:43:29;100404.09;;;11.24;49.69
20656;BME280;10487;53.320;8.672;2023-05-10T04:46:31;100409.56;;;11.22;49.69
20656;BME280;10487;53.320;8.672;2023-05-10T04:49:33;100414.16;;;11.20;49.65
20656;BME280;10487;53.320;8.672;2023-05-10T04:52:35;100416.72;;;11.22;49.69
20656;BME280;10487;53.320;8.672;2023-05-10T04:55:37;100420.47;;;11.19;49.80
20656;BME280;10487;53.320;8.672;2023-05-10T04:58:39;100426.06;;;11.16;49.64
20656;BME280;10487;53.320;8.672;2023-05-10T05:01:41;100419.88;;;11.15;49.68
20656;BME280;10487;53.320;8.672;2023-05-10T05:04:43;100428.03;;;11.14;49.86
20656;BME280;10487;53.320;8.672;2023-05-10T05:07:44;100428.88;;;11.14;49.78
20656;BME280;10487;53.320;8.672;2023-05-10T05:10:47;100436.75;;;11.16;49.65
20656;BME280;10487;53.320;8.672;2023-05-10T05:13:51;100440.28;;;11.16;49.47
20656;BME280;10487;53.320;8.672;2023-05-10T05:16:53;100457.16;;;11.17;49.68
20656;BME280;10487;53.320;8.672;2023-05-10T05:19:54;100454.81;;;11.24;49.70
20656;BME280;10487;53.320;8.672;2023-05-10T05:22:56;100461.13;;;11.23;49.63
20656;BME280;10487;53.320;8.672;2023-05-10T05:25:58;100464.88;;;11.20;49.50
20656;BME280;10487;53.320;8.672;2023-05-10T05:28:59;100460.53;;;11.19;49.73
20656;BME280;10487;53.320;8.672;2023-05-10T05:32:01;100460.78;;;11.16;49.59
20656;BME280;10487;53.320;8.672;2023-05-10T05:35:03;100464.88;;;11.20;49.94
20656;BME280;10487;53.320;8.672;2023-05-10T05:38:04;100470.22;;;11.20;49.93
20656;BME280;10487;53.320;8.672;2023-05-10T05:41:06;100464.31;;;11.16;49.91
20656;BME280;10487;53.320;8.672;2023-05-10T05:44:08;100467.22;;;11.13;49.75
20656;BME280;10487;53.320;8.672;2023-05-10T05:47:10;100467.47;;;11.10;49.91
20656;BME280;10487;53.320;8.672;2023-05-10T05:50:12;100466.88;;;11.07;49.95
20656;BME280;10487;53.320;8.672;2023-05-10T05:53:13;100480.59;;;11.02;49.95
20656;BME280;10487;53.320;8.672;2023-05-10T05:56:15;100483.59;;;10.98;49.97
20656;BME280;10487;53.320;8.672;2023-05-10T05:59:18;100485.69;;;10.94;49.88
20656;BME280;10487;53.320;8.672;2023-05-10T06:02:20;100490.16;;;10.94;50.27
20656;BME280;10487;53.320;8.672;2023-05-10T06:05:22;100482.38;;;10.91;50.02
20656;BME280;10487;53.320;8.672;2023-05-10T06:08:23;100487.97;;;10.88;50.12
20656;BME280;10487;53.320;8.672;2023-05-10T06:11:25;100483.84;;;10.84;50.17
20656;BME280;10487;53.320;8.672;2023-05-10T06:14:27;100496.47;;;10.82;50.17
20656;BME280;10487;53.320;8.672;2023-05-10T06:17:29;100499.38;;;10.79;50.21
20656;BME280;10487;53.320;8.672;2023-05-10T06:20:30;100487.97;;;10.77;50.17
20656;BME280;10487;53.320;8.672;2023-05-10T06:23:32;100489.78;;;10.76;50.14
20656;BME280;10487;53.320;8.672;2023-05-10T06:26:34;100495.97;;;10.77;50.35
20656;BME280;10487;53.320;8.672;2023-05-10T06:29:36;100504.94;;;10.76;50.21
20656;BME280;10487;53.320;8.672;2023-05-10T06:32:37;100509.31;;;10.77;50.28
20656;BME280;10487;53.320;8.672;2023-05-10T06:35:39;100509.31;;;10.77;50.31
20656;BME280;10487;53.320;8.672;2023-05-10T06:38:40;100509.31;;;10.77;50.35
20656;BME280;10487;53.320;8.672;2023-05-10T06:41:42;100512.94;;;10.76;50.21
20656;BME280;10487;53.320;8.672;2023-05-10T06:44:44;100527.16;;;10.76;50.27
20656;BME280;10487;53.320;8.672;2023-05-10T06:47:45;100528.97;;;10.76;50.47
20656;BME280;10487;53.320;8.672;2023-05-10T06:50:47;100527.16;;;10.76;50.49
20656;BME280;10487;53.320;8.672;2023-05-10T06:53:49;100531.75;;;10.74;50.38
20656;BME280;10487;53.320;8.672;2023-05-10T06:56:50;100537.97;;;10.75;50.57
20656;BME280;10487;53.320;8.672;2023-05-10T06:59:52;100537.97;;;10.86;50.78
20656;BME280;10487;53.320;8.672;2023-05-10T07:02:53;100527.31;;;10.97;50.71
20656;BME280;10487;53.320;8.672;2023-05-10T07:06:02;100534.22;;;10.99;50.82
20656;BME280;10487;53.320;8.672;2023-05-10T07:09:05;100535.19;;;10.98;50.76
20656;BME280;10487;53.320;8.672;2023-05-10T07:12:06;100535.06;;;11.00;50.89
20656;BME280;10487;53.320;8.672;2023-05-10T07:15:10;100530.56;;;11.00;50.60
20656;BME280;10487;53.320;8.672;2023-05-10T07:18:12;100538.47;;;11.02;50.88
20656;BME280;10487;53.320;8.672;2023-05-10T07:21:14;100540.31;;;11.12;50.86
20656;BME280;10487;53.320;8.672;2023-05-10T07:24:15;100541.13;;;11.24;50.81
20656;BME280;10487;53.320;8.672;2023-05-10T07:27:17;100545.25;;;11.28;50.98
20656;BME280;10487;53.320;8.672;2023-05-10T07:30:18;100544.88;;;11.33;51.03
20656;BME280;10487;53.320;8.672;2023-05-10T07:33:21;100553.66;;;11.35;50.81
20656;BME280;10487;53.320;8.672;2023-05-10T07:36:22;100562.50;;;11.35;50.97
20656;BME280;10487;53.320;8.672;2023-05-10T07:39:25;100558.84;;;11.36;50.93
20656;BME280;10487;53.320;8.672;2023-05-10T07:42:28;100566.63;;;11.39;51.17
20656;BME280;10487;53.320;8.672;2023-05-10T07:45:29;100563.72;;;11.42;51.24
20656;BME280;10487;53.320;8.672;2023-05-10T07:48:31;100553.63;;;11.46;51.14
20656;BME280;10487;53.320;8.672;2023-05-10T07:51:33;100561.25;;;11.50;50.99
20656;BME280;10487;53.320;8.672;2023-05-10T07:54:35;100553.03;;;11.53;51.29
20656;BME280;10487;53.320;8.672;2023-05-10T07:57:37;100556.34;;;11.57;51.14
20656;BME280;10487;53.320;8.672;2023-05-10T08:00:39;100562.25;;;11.60;51.35
20656;BME280;10487;53.320;8.672;2023-05-10T08:03:41;100564.69;;;11.63;51.23
20656;BME280;10487;53.320;8.672;2023-05-10T08:06:43;100569.78;;;11.66;51.34
20656;BME280;10487;53.320;8.672;2023-05-10T08:09:45;100573.81;;;11.72;51.28
20656;BME280;10487;53.320;8.672;2023-05-10T08:12:46;100575.09;;;11.77;51.35
20656;BME280;10487;53.320;8.672;2023-05-10T08:15:48;100572.81;;;11.84;51.57
20656;BME280;10487;53.320;8.672;2023-05-10T08:18:49;100588.31;;;11.90;51.48
20656;BME280;10487;53.320;8.672;2023-05-10T08:21:52;100590.63;;;11.95;51.43
20656;BME280;10487;53.320;8.672;2023-05-10T08:24:54;100584.78;;;12.01;51.40
20656;BME280;10487;53.320;8.672;2023-05-10T08:27:56;100591.47;;;12.06;51.67
20656;BME280;10487;53.320;8.672;2023-05-10T08:30:57;100594.47;;;12.13;51.32
20656;BME280;10487;53.320;8.672;2023-05-10T08:33:59;100597.75;;;12.16;51.64
20656;BME280;10487;53.320;8.672;2023-05-10T08:37:01;100592.00;;;12.21;51.40
20656;BME280;10487;53.320;8.672;2023-05-10T08:40:03;100591.38;;;12.28;51.57
20656;BME280;10487;53.320;8.672;2023-05-10T08:43:07;100594.84;;;12.40;51.77
20656;BME280;10487;53.320;8.672;2023-05-10T08:46:10;100588.59;;;12.51;51.83
20656;BME280;10487;53.320;8.672;2023-05-10T08:49:17;100589.97;;;12.56;51.45
20656;BME280;10487;53.320;8.672;2023-05-10T08:52:22;100597.44;;;12.62;51.88
20656;BME280;10487;53.320;8.672;2023-05-10T08:55:27;100605.22;;;12.65;51.71
20656;BME280;10487;53.320;8.672;2023-05-10T08:58:29;100606.94;;;12.66;51.62
20656;BME280;10487;53.320;8.672;2023-05-10T09:01:31;100606.66;;;12.69;51.77
20656;BME280;10487;53.320;8.672;2023-05-10T09:04:34;100614.56;;;12.71;51.64
20656;BME280;10487;53.320;8.672;2023-05-10T09:07:36;100621.22;;;12.76;51.53
20656;BME280;10487;53.320;8.672;2023-05-10T09:10:39;100625.34;;;12.80;51.75
20656;BME280;10487;53.320;8.672;2023-05-10T09:13:41;100619.75;;;12.83;51.70
20656;BME280;10487;53.320;8.672;2023-05-10T09:16:44;100624.81;;;12.86;51.67
20656;BME280;10487;53.320;8.672;2023-05-10T09:19:46;100628.25;;;12.88;51.62
20656;BME280;10487;53.320;8.672;2023-05-10T09:22:47;100632.19;;;12.94;51.67
20656;BME280;10487;53.320;8.672;2023-05-10T09:26:02;100629.88;;;13.00;51.59
20656;BME280;10487;53.320;8.672;2023-05-10T09:29:04;100638.47;;;13.04;51.68
20656;BME280;10487;53.320;8.672;2023-05-10T09:32:07;100642.31;;;13.11;51.70
20656;BME280;10487;53.320;8.672;2023-05-10T09:35:12;100640.94;;;13.17;52.02
20656;BME280;10487;53.320;8.672;2023-05-10T09:38:14;100639.72;;;13.21;51.79
20656;BME280;10487;53.320;8.672;2023-05-10T09:41:21;100650.88;;;13.26;52.01
20656;BME280;10487;53.320;8.672;2023-05-10T09:44:25;100652.72;;;13.25;51.71
20656;BME280;10487;53.320;8.672;2023-05-10T09:47:27;100655.41;;;13.25;51.72
20656;BME280;10487;53.320;8.672;2023-05-10T09:50:30;100646.66;;;13.23;51.78
20656;BME280;10487;53.320;8.672;2023-05-10T09:53:31;100651.16;;;13.23;51.79
20656;BME280;10487;53.320;8.672;2023-05-10T09:56:34;100659.31;;;13.21;51.88
20656;BME280;10487;53.320;8.672;2023-05-10T09:59:42;100662.56;;;13.25;51.83
20656;BME280;10487;53.320;8.672;2023-05-10T10:02:54;100663.19;;;13.28;51.91
20656;BME280;10487;53.320;8.672;2023-05-10T10:05:56;100658.38;;;13.32;52.14
20656;BME280;10487;53.320;8.672;2023-05-10T10:08:58;100667.88;;;13.36;51.97
20656;BME280;10487;53.320;8.672;2023-05-10T10:12:02;100662.13;;;13.40;51.91
20656;BME280;10487;53.320;8.672;2023-05-10T10:15:06;100663.69;;;13.43;51.89
20656;BME280;10487;53.320;8.672;2023-05-10T10:18:13;100672.31;;;13.46;52.07
20656;BME280;10487;53.320;8.672;2023-05-10T10:21:16;100668.66;;;13.47;51.92
20656;BME280;10487;53.320;8.672;2023-05-10T10:24:18;100665.13;;;13.47;52.10
20656;BME280;10487;53.320;8.672;2023-05-10T10:34:03;100671.91;;;13.51;52.08
20656;BME280;10487;53.320;8.672;2023-05-10T10:37:06;100676.31;;;13.52;51.86
20656;BME280;10487;53.320;8.672;2023-05-10T10:43:29;100681.41;;;13.55;51.96
20656;BME280;10487;53.320;8.672;2023-05-10T10:46:34;100684.09;;;13.55;51.96
20656;BME280;10487;53.320;8.672;2023-05-10T10:52:43;100687.22;;;13.60;52.29
20656;BME280;10487;53.320;8.672;2023-05-10T10:55:46;100690.34;;;13.65;52.30
20656;BME280;10487;53.320;8.672;2023-05-10T10:58:50;100690.34;;;13.65;52.11
20656;BME280;10487;53.320;8.672;2023-05-10T11:01:55;100685.44;;;13.70;52.29
20656;BME280;10487;53.320;8.672;2023-05-10T11:04:57;100686.16;;;13.82;52.32
20656;BME280;10487;53.320;8.672;2023-05-10T11:08:00;100683.69;;;13.99;52.32
20656;BME280;10487;53.320;8.672;2023-05-10T11:11:05;100679.66;;;14.14;52.03
20656;BME280;10487;53.320;8.672;2023-05-10T11:14:11;100680.22;;;14.18;52.04
20656;BME280;10487;53.320;8.672;2023-05-10T11:17:22;100686.31;;;14.20;51.87
20656;BME280;10487;53.320;8.672;2023-05-10T11:20:28;100693.25;;;14.22;52.08
20656;BME280;10487;53.320;8.672;2023-05-10T11:26:45;100691.16;;;14.45;52.15
20656;BME280;10487;53.320;8.672;2023-05-10T11:29:51;100688.97;;;14.69;52.09
20656;BME280;10487;53.320;8.672;2023-05-10T11:32:52;100694.16;;;14.90;51.90
20656;BME280;10487;53.320;8.672;2023-05-10T11:35:54;100700.53;;;15.08;51.90
20656;BME280;10487;53.320;8.672;2023-05-10T11:38:56;100704.63;;;15.22;51.82
20656;BME280;10487;53.320;8.672;2023-05-10T11:41:58;100700.84;;;15.24;51.90
20656;BME280;10487;53.320;8.672;2023-05-10T11:45:00;100710.13;;;15.20;51.88
20656;BME280;10487;53.320;8.672;2023-05-10T11:48:03;100711.28;;;15.27;51.94
20656;BME280;10487;53.320;8.672;2023-05-10T11:51:06;100712.13;;;15.37;52.13
20656;BME280;10487;53.320;8.672;2023-05-10T11:54:09;100720.16;;;15.47;51.92
20656;BME280;10487;53.320;8.672;2023-05-10T11:57:11;100715.34;;;15.50;51.89
20656;BME280;10487;53.320;8.672;2023-05-10T12:00:13;100728.34;;;15.55;51.81
20656;BME280;10487;53.320;8.672;2023-05-10T12:03:16;100727.25;;;15.48;51.82
20656;BME280;10487;53.320;8.672;2023-05-10T12:06:19;100736.91;;;15.31;51.85
20656;BME280;10487;53.320;8.672;2023-05-10T12:09:21;100738.00;;;15.19;51.77
20656;BME280;10487;53.320;8.672;2023-05-10T12:12:46;100732.50;;;15.11;51.86
20656;BME280;10487;53.320;8.672;2023-05-10T12:15:51;100738.31;;;15.07;52.09
20656;BME280;10487;53.320;8.672;2023-05-10T12:18:55;100740.56;;;15.11;52.37
20656;BME280;10487;53.320;8.672;2023-05-10T12:21:57;100747.34;;;15.15;52.19
20656;BME280;10487;53.320;8.672;2023-05-10T12:24:58;100752.59;;;15.17;52.12
20656;BME280;10487;53.320;8.672;2023-05-10T12:28:03;100751.59;;;15.08;51.99
20656;BME280;10487;53.320;8.672;2023-05-10T12:31:06;100765.03;;;14.98;52.06
20656;BME280;10487;53.320;8.672;2023-05-10T12:34:08;100765.88;;;14.89;52.12
20656;BME280;10487;53.320;8.672;2023-05-10T12:37:09;100772.22;;;14.79;52.20
20656;BME280;10487;53.320;8.672;2023-05-10T12:40:11;100766.94;;;14.68;52.32
20656;BME280;10487;53.320;8.672;2023-05-10T12:43:13;100773.16;;;14.59;52.30
20656;BME280;10487;53.320;8.672;2023-05-10T12:46:16;100778.38;;;14.51;52.33
20656;BME280;10487;53.320;8.672;2023-05-10T12:49:18;100785.28;;;14.44;52.52
20656;BME280;10487;53.320;8.672;2023-05-10T12:52:20;100782.31;;;14.37;52.59
20656;BME280;10487;53.320;8.672;2023-05-10T12:55:24;100791.56;;;14.33;52.68
20656;BME280;10487;53.320;8.672;2023-05-10T12:58:25;100802.19;;;14.34;52.41
20656;BME280;10487;53.320;8.672;2023-05-10T13:01:36;100805.72;;;14.35;52.66
20656;BME280;10487;53.320;8.672;2023-05-10T13:04:38;100814.03;;;14.32;52.59
20656;BME280;10487;53.320;8.672;2023-05-10T13:07:41;100810.03;;;14.26;52.55
20656;BME280;10487;53.320;8.672;2023-05-10T13:10:42;100810.47;;;14.22;52.59
20656;BME280;10487;53.320;8.672;2023-05-10T13:13:44;100813.81;;;14.14;52.78
20656;BME280;10487;53.320;8.672;2023-05-10T13:16:46;100814.06;;;14.11;52.79
20656;BME280;10487;53.320;8.672;2023-05-10T13:19:48;100817.72;;;14.10;52.92
20656;BME280;10487;53.320;8.672;2023-05-10T13:22:50;100817.63;;;14.12;52.86
20656;BME280;10487;53.320;8.672;2023-05-10T13:25:52;100816.59;;;14.13;52.76
20656;BME280;10487;53.320;8.672;2023-05-10T13:28:54;100821.97;;;14.13;52.65
20656;BME280;10487;53.320;8.672;2023-05-10T13:31:57;100821.97;;;14.13;53.00
20656;BME280;10487;53.320;8.672;2023-05-10T13:34:58;100822.97;;;14.12;52.88
20656;BME280;10487;53.320;8.672;2023-05-10T13:38:00;100833.56;;;14.13;52.66
20656;BME280;10487;53.320;8.672;2023-05-10T13:41:01;100831.28;;;14.09;52.76
20656;BME280;10487;53.320;8.672;2023-05-10T13:44:03;100842.28;;;14.06;52.92
20656;BME280;10487;53.320;8.672;2023-05-10T13:47:05;100841.72;;;14.02;52.89
20656;BME280;10487;53.320;8.672;2023-05-10T13:50:07;100846.47;;;13.99;52.75
20656;BME280;10487;53.320;8.672;2023-05-10T13:53:08;100849.56;;;13.94;53.04
20656;BME280;10487;53.320;8.672;2023-05-10T13:56:10;100857.28;;;13.88;52.99
20656;BME280;10487;53.320;8.672;2023-05-10T13:59:12;100857.81;;;13.82;52.95
20656;BME280;10487;53.320;8.672;2023-05-10T14:02:13;100858.47;;;13.74;53.13
20656;BME280;10487;53.320;8.672;2023-05-10T14:05:15;100857.88;;;13.70;53.16
20656;BME280;10487;53.320;8.672;2023-05-10T14:08:19;100867.16;;;13.66;53.38
20656;BME280;10487;53.320;8.672;2023-05-10T14:11:21;100869.25;;;13.63;52.92
20656;BME280;10487;53.320;8.672;2023-05-10T14:14:25;100873.63;;;13.64;53.45
20656;BME280;10487;53.320;8.672;2023-05-10T14:17:27;100873.88;;;13.61;53.03
20656;BME280;10487;53.320;8.672;2023-05-10T14:20:28;100869.75;;;13.57;53.37
20656;BME280;10487;53.320;8.672;2023-05-10T14:23:30;100877.34;;;13.52;53.47
20656;BME280;10487;53.320;8.672;2023-05-10T14:26:32;100875.91;;;13.48;53.40
20656;BME280;10487;53.320;8.672;2023-05-10T14:29:35;100884.16;;;13.45;53.15
20656;BME280;10487;53.320;8.672;2023-05-10T14:32:37;100879.06;;;13.42;53.46
20656;BME280;10487;53.320;8.672;2023-05-10T14:35:39;100886.38;;;13.40;53.39
20656;BME280;10487;53.320;8.672;2023-05-10T14:38:40;100881.25;;;13.37;53.37
20656;BME280;10487;53.320;8.672;2023-05-10T14:41:42;100885.78;;;13.36;53.42
20656;BME280;10487;53.320;8.672;2023-05-10T14:44:45;100882.69;;;13.41;53.50
20656;BME280;10487;53.320;8.672;2023-05-10T14:47:47;100884.16;;;13.45;53.36
20656;BME280;10487;53.320;8.672;2023-05-10T14:50:49;100875.91;;;13.48;53.62
20656;BME280;10487;53.320;8.672;2023-05-10T14:53:51;100887.09;;;13.53;53.26
20656;BME280;10487;53.320;8.672;2023-05-10T14:56:52;100882.91;;;13.60;53.36
20656;BME280;10487;53.320;8.672;2023-05-10T14:59:54;100889.47;;;13.67;53.54
20656;BME280;10487;53.320;8.672;2023-05-10T15:02:56;100891.75;;;13.71;53.56
20656;BME280;10487;53.320;8.672;2023-05-10T15:05:59;100901.13;;;13.77;53.32
20656;BME280;10487;53.320;8.672;2023-05-10T15:09:02;100899.84;;;13.81;53.45
20656;BME280;10487;53.320;8.672;2023-05-10T15:12:04;100899.84;;;13.81;53.26
20656;BME280;10487;53.320;8.672;2023-05-10T15:15:06;100902.69;;;13.80;53.51
20656;BME280;10487;53.320;8.672;2023-05-10T15:18:09;100903.53;;;13.80;53.56
20656;BME280;10487;53.320;8.672;2023-05-10T15:21:11;100903.66;;;13.79;53.39
20656;BME280;10487;53.320;8.672;2023-05-10T15:24:13;100904.03;;;13.74;53.41
20656;BME280;10487;53.320;8.672;2023-05-10T15:27:14;100905.88;;;13.73;53.62
20656;BME280;10487;53.320;8.672;2023-05-10T15:30:16;100913.19;;;13.71;53.63
20656;BME280;10487;53.320;8.672;2023-05-10T15:33:18;100916.28;;;13.67;53.66
20656;BME280;10487;53.320;8.672;2023-05-10T15:36:21;100919.91;;;13.66;53.80
20656;BME280;10487;53.320;8.672;2023-05-10T15:39:22;100923.72;;;13.63;53.59
20656;BME280;10487;53.320;8.672;2023-05-10T15:42:24;100927.50;;;13.61;53.59
20656;BME280;10487;53.320;8.672;2023-05-10T15:45:25;100933.13;;;13.58;53.60
20656;BME280;10487;53.320;8.672;2023-05-10T15:48:27;100936.78;;;13.57;53.93
20656;BME280;10487;53.320;8.672;2023-05-10T15:51:32;100932.53;;;13.54;53.56
20656;BME280;10487;53.320;8.672;2023-05-10T15:54:36;100935.22;;;13.54;53.60
20656;BME280;10487;53.320;8.672;2023-05-10T15:57:39;100939.84;;;13.52;53.82
20656;BME280;10487;53.320;8.672;2023-05-10T16:00:41;100938.03;;;13.53;53.67
20656;BME280;10487;53.320;8.672;2023-05-10T16:03:43;100936.78;;;13.57;53.81
20656;BME280;10487;53.320;8.672;2023-05-10T16:06:44;100947.25;;;13.60;53.62
20656;BME280;10487;53.320;8.672;2023-05-10T16:09:46;100945.28;;;13.62;53.90
20656;BME280;10487;53.320;8.672;2023-05-10T16:12:49;100958.56;;;13.63;53.81
20656;BME280;10487;53.320;8.672;2023-05-10T16:15:52;100948.84;;;13.62;53.83
20656;BME280;10487;53.320;8.672;2023-05-10T16:18:54;100959.66;;;13.61;53.95
20656;BME280;10487;53.320;8.672;2023-05-10T16:21:56;100964.06;;;13.62;53.90